sensor_id;sensor_type;location;lat;lon;timestamp;temperature;humidity
29501;DHT22;16450;50.288;10.966;2023-06-14T00:00:03;17.50;45.30
29501;DHT22;16450;50.288;10.966;2023-06-14T00:03:08;17.40;45.30
29501;DHT22;16450;50.288;10.966;2023-06-14T00:06:12;17.20;45.40
29501;DHT22;16450;50.288;10.966;2023-06-14T00:09:14;17.20;45.50
29501;DHT22;16450;50.288;10.966;2023-06-14T00:12:19;17.20;45.60
29501;DHT22;16450;50.288;10.966;2023-06-14T00:15:21;17.20;45.80
29501;DHT22;16450;50.288;10.966;2023-06-14T00:18:23;17.10;45.80
29501;DHT22;16450;50.288;10.966;2023-06-14T00:21:31;17.00;45.80
29501;DHT22;16450;50.288;10.966;2023-06-14T00:24:33;17.00;45.90
29501;DHT22;16450;50.288;10.966;2023-06-14T00:27:35;16.90;45.90
29501;DHT22;16450;50.288;10.966;2023-06-14T00:30:37;16.80;45.90
29501;DHT22;16450;50.288;10.966;2023-06-14T00:33:39;16.80;46.00
29501;DHT22;16450;50.288;10.966;2023-06-14T00:36:41;16.70;46.10
29501;DHT22;16450;50.288;10.966;2023-06-14T00:39:43;16.70;46.20
29501;DHT22;16450;50.288;10.966;2023-06-14T00:42:45;16.60;46.20
29501;DHT22;16450;50.288;10.966;2023-06-14T00:45:47;16.60;46.40
29501;DHT22;16450;50.288;10.966;2023-06-14T00:48:51;16.50;46.50
29501;DHT22;16450;50.288;10.966;2023-06-14T00:51:53;16.50;46.70
29501;DHT22;16450;50.288;10.966;2023-06-14T00:54:56;16.40;46.70
29501;DHT22;16450;50.288;10.966;2023-06-14T00:57:58;16.40;46.80
29501;DHT22;16450;50.288;10.966;2023-06-14T01:01:00;16.40;47.10
29501;DHT22;16450;50.288;10.966;2023-06-14T01:04:02;16.30;47.10
29501;DHT22;16450;50.288;10.966;2023-06-14T01:07:10;16.20;47.20
29501;DHT22;16450;50.288;10.966;2023-06-14T01:13:42;16.10;47.30
29501;DHT22;16450;50.288;10.966;2023-06-14T01:16:45;16.10;47.60
29501;DHT22;16450;50.288;10.966;2023-06-14T01:19:48;16.00;47.50
29501;DHT22;16450;50.288;10.966;2023-06-14T01:23:04;16.00;47.70
29501;DHT22;16450;50.288;10.966;2023-06-14T01:26:06;15.90;47.80
29501;DHT22;16450;50.288;10.966;2023-06-14T01:29:08;15.80;47.90
29501;DHT22;16450;50.288;10.966;2023-06-14T01:32:12;15.80;47.90
29501;DHT22;16450;50.288;10.966;2023-06-14T01:35:15;15.70;47.80
29501;DHT22;16450;50.288;10.966;2023-06-14T01:38:20;15.70;48.10
29501;DHT22;16450;50.288;10.966;2023-06-14T01:41:23;15.60;48.40
29501;DHT22;16450;50.288;10.966;2023-06-14T01:44:27;15.60;48.40
29501;DHT22;16450;50.288;10.966;2023-06-14T01:47:31;15.50;48.80
29501;DHT22;16450;50.288;10.966;2023-06-14T01:50:34;15.40;48.90
29501;DHT22;16450;50.288;10.966;2023-06-14T01:53:36;15.40;49.00
29501;DHT22;16450;50.288;10.966;2023-06-14T01:56:38;15.30;49.00
29501;DHT22;16450;50.288;10.966;2023-06-14T01:59:40;15.30;49.10
29501;DHT22;16450;50.288;10.966;2023-06-14T02:02:41;15.30;49.30
29501;DHT22;16450;50.288;10.966;2023-06-14T02:05:43;15.20;49.30
29501;DHT22;16450;50.288;10.966;2023-06-14T02:08:45;15.20;49.50
29501;DHT22;16450;50.288;10.966;2023-06-14T02:11:47;15.20;49.70
29501;DHT22;16450;50.288;10.966;2023-06-14T02:14:49;15.10;49.80
29501;DHT22;16450;50.288;10.966;2023-06-14T02:17:52;15.00;49.80
29501;DHT22;16450;50.288;10.966;2023-06-14T02:20:54;15.00;49.90
29501;DHT22;16450;50.288;10.966;2023-06-14T02:23:56;14.90;50.00
29501;DHT22;16450;50.288;10.966;2023-06-14T02:26:58;15.00;50.30
29501;DHT22;16450;50.288;10.966;2023-06-14T02:30:00;14.90;50.40
29501;DHT22;16450;50.288;10.966;2023-06-14T02:33:02;14.90;50.60
29501;DHT22;16450;50.288;10.966;2023-06-14T02:36:05;14.90;50.60
29501;DHT22;16450;50.288;10.966;2023-06-14T02:39:10;14.80;50.70
29501;DHT22;16450;50.288;10.966;2023-06-14T02:42:12;14.80;51.00
29501;DHT22;16450;50.288;10.966;2023-06-14T02:45:14;14.80;50.80
29501;DHT22;16450;50.288;10.966;2023-06-14T02:48:16;14.80;50.90
29501;DHT22;16450;50.288;10.966;2023-06-14T02:51:19;14.80;51.00
29501;DHT22;16450;50.288;10.966;2023-06-14T02:54:21;14.80;51.10
29501;DHT22;16450;50.288;10.966;2023-06-14T02:57:23;14.70;51.20
29501;DHT22;16450;50.288;10.966;2023-06-14T03:00:25;14.70;51.10
29501;DHT22;16450;50.288;10.966;2023-06-14T03:03:27;14.70;51.30
29501;DHT22;16450;50.288;10.966;2023-06-14T03:06:29;14.70;51.40
29501;DHT22;16450;50.288;10.966;2023-06-14T03:09:32;14.40;51.20
29501;DHT22;16450;50.288;10.966;2023-06-14T03:12:33;14.60;51.40
29501;DHT22;16450;50.288;10.966;2023-06-14T03:15:36;14.50;51.50
29501;DHT22;16450;50.288;10.966;2023-06-14T03:18:38;14.50;51.60
29501;DHT22;16450;50.288;10.966;2023-06-14T03:21:40;14.50;51.90
29501;DHT22;16450;50.288;10.966;2023-06-14T03:24:46;14.40;51.80
29501;DHT22;16450;50.288;10.966;2023-06-14T03:27:48;14.40;52.00
29501;DHT22;16450;50.288;10.966;2023-06-14T03:30:50;14.40;52.30
29501;DHT22;16450;50.288;10.966;2023-06-14T03:33:53;14.40;52.40
29501;DHT22;16450;50.288;10.966;2023-06-14T03:36:55;14.40;52.40
29501;DHT22;16450;50.288;10.966;2023-06-14T03:39:57;14.40;52.60
29501;DHT22;16450;50.288;10.966;2023-06-14T03:42:59;14.30;52.60
29501;DHT22;16450;50.288;10.966;2023-06-14T03:46:01;14.40;52.80
29501;DHT22;16450;50.288;10.966;2023-06-14T03:49:03;14.40;52.90
29501;DHT22;16450;50.288;10.966;2023-06-14T03:52:05;14.30;52.90
29501;DHT22;16450;50.288;10.966;2023-06-14T03:55:07;14.40;53.10
29501;DHT22;16450;50.288;10.966;2023-06-14T03:58:13;14.40;53.20
29501;DHT22;16450;50.288;10.966;2023-06-14T04:01:15;14.40;53.30
29501;DHT22;16450;50.288;10.966;2023-06-14T04:04:16;14.40;53.30
29501;DHT22;16450;50.288;10.966;2023-06-14T04:07:20;14.40;53.50
29501;DHT22;16450;50.288;10.966;2023-06-14T04:10:22;14.40;53.50
29501;DHT22;16450;50.288;10.966;2023-06-14T04:13:25;14.40;53.70
29501;DHT22;16450;50.288;10.966;2023-06-14T04:16:27;14.40;53.90
29501;DHT22;16450;50.288;10.966;2023-06-14T04:19:31;14.40;54.00
29501;DHT22;16450;50.288;10.966;2023-06-14T04:22:34;14.40;54.30
29501;DHT22;16450;50.288;10.966;2023-06-14T04:25:36;14.40;54.10
29501;DHT22;16450;50.288;10.966;2023-06-14T04:28:38;14.40;54.40
29501;DHT22;16450;50.288;10.966;2023-06-14T04:31:43;14.40;54.40
29501;DHT22;16450;50.288;10.966;2023-06-14T04:34:46;14.40;54.40
29501;DHT22;16450;50.288;10.966;2023-06-14T04:37:49;14.50;54.50
29501;DHT22;16450;50.288;10.966;2023-06-14T04:40:51;14.50;54.60
29501;DHT22;16450;50.288;10.966;2023-06-14T04:43:54;14.50;54.70
29501;DHT22;16450;50.288;10.966;2023-06-14T04:46:59;14.60;55.30
29501;DHT22;16450;50.288;10.966;2023-06-14T04:50:01;14.80;56.20
29501;DHT22;16450;50.288;10.966;2023-06-14T04:53:03;15.10;56.40
29501;DHT22;16450;50.288;10.966;2023-06-14T04:56:07;15.30;55.90
29501;DHT22;16450;50.288;10.966;2023-06-14T04:59:09;15.50;55.20
29501;DHT22;16450;50.288;10.966;2023-06-14T05:02:13;15.50;55.30
29501;DHT22;16450;50.288;10.966;2023-06-14T05:05:16;15.70;55.10
29501;DHT22;16450;50.288;10.966;2023-06-14T05:08:20;15.90;56.40
29501;DHT22;16450;50.288;10.966;2023-06-14T05:11:25;16.30;57.50
29501;DHT22;16450;50.288;10.966;2023-06-14T05:14:28;16.90;58.30
29501;DHT22;16450;50.288;10.966;2023-06-14T05:17:30;17.50;58.50
29501;DHT22;16450;50.288;10.966;2023-06-14T05:20:32;18.10;58.20
29501;DHT22;16450;50.288;10.966;2023-06-14T05:23:34;18.80;57.60
29501;DHT22;16450;50.288;10.966;2023-06-14T05:26:36;19.40;57.40
29501;DHT22;16450;50.288;10.966;2023-06-14T05:29:38;20.10;56.60
29501;DHT22;16450;50.288;10.966;2023-06-14T05:32:40;20.60;55.70
29501;DHT22;16450;50.288;10.966;2023-06-14T05:35:42;21.10;54.70
29501;DHT22;16450;50.288;10.966;2023-06-14T05:38:45;21.50;53.60
29501;DHT22;16450;50.288;10.966;2023-06-14T05:41:47;21.90;53.00
29501;DHT22;16450;50.288;10.966;2023-06-14T05:44:51;22.30;52.00
29501;DHT22;16450;50.288;10.966;2023-06-14T05:47:53;22.60;51.60
29501;DHT22;16450;50.288;10.966;2023-06-14T05:50:56;22.90;51.60
29501;DHT22;16450;50.288;10.966;2023-06-14T05:53:59;23.10;50.30
29501;DHT22;16450;50.288;10.966;2023-06-14T05:57:03;23.30;49.30
29501;DHT22;16450;50.288;10.966;2023-06-14T06:00:08;23.40;48.80
29501;DHT22;16450;50.288;10.966;2023-06-14T06:03:16;23.60;48.90
29501;DHT22;16450;50.288;10.966;2023-06-14T06:06:18;23.70;48.30
29501;DHT22;16450;50.288;10.966;2023-06-14T06:09:21;23.90;48.10
29501;DHT22;16450;50.288;10.966;2023-06-14T06:12:23;24.10;47.70
29501;DHT22;16450;50.288;10.966;2023-06-14T06:15:25;24.20;47.10
29501;DHT22;16450;50.288;10.966;2023-06-14T06:18:27;24.40;46.70
29501;DHT22;16450;50.288;10.966;2023-06-14T06:21:29;24.50;46.30
29501;DHT22;16450;50.288;10.966;2023-06-14T06:24:31;24.60;45.70
29501;DHT22;16450;50.288;10.966;2023-06-14T06:27:33;24.70;45.10
29501;DHT22;16450;50.288;10.966;2023-06-14T06:30:35;24.80;44.80
29501;DHT22;16450;50.288;10.966;2023-06-14T06:33:38;24.80;44.40
29501;DHT22;16450;50.288;10.966;2023-06-14T06:36:41;24.80;43.90
29501;DHT22;16450;50.288;10.966;2023-06-14T06:39:43;24.70;43.50
29501;DHT22;16450;50.288;10.966;2023-06-14T06:42:45;24.60;42.90
29501;DHT22;16450;50.288;10.966;2023-06-14T06:45:47;24.40;42.50
29501;DHT22;16450;50.288;10.966;2023-06-14T06:48:49;24.10;43.10
29501;DHT22;16450;50.288;10.966;2023-06-14T06:52:05;23.70;42.60
29501;DHT22;16450;50.288;10.966;2023-06-14T06:55:08;23.50;43.30
29501;DHT22;16450;50.288;10.966;2023-06-14T06:58:14;23.40;44.00
29501;DHT22;16450;50.288;10.966;2023-06-14T07:01:17;23.50;44.10
29501;DHT22;16450;50.288;10.966;2023-06-14T07:04:20;23.60;44.00
29501;DHT22;16450;50.288;10.966;2023-06-14T07:07:22;23.70;44.30
29501;DHT22;16450;50.288;10.966;2023-06-14T07:10:25;23.90;44.60
29501;DHT22;16450;50.288;10.966;2023-06-14T07:13:27;24.10;44.90
29501;DHT22;16450;50.288;10.966;2023-06-14T07:16:29;24.40;45.00
29501;DHT22;16450;50.288;10.966;2023-06-14T07:19:31;24.70;44.50
29501;DHT22;16450;50.288;10.966;2023-06-14T07:22:33;25.00;44.00
29501;DHT22;16450;50.288;10.966;2023-06-14T07:25:35;25.30;43.20
29501;DHT22;16450;50.288;10.966;2023-06-14T07:28:37;25.50;42.90
29501;DHT22;16450;50.288;10.966;2023-06-14T07:31:39;25.60;42.40
29501;DHT22;16450;50.288;10.966;2023-06-14T07:34:41;25.80;42.00
29501;DHT22;16450;50.288;10.966;2023-06-14T07:37:43;25.80;41.80
29501;DHT22;16450;50.288;10.966;2023-06-14T07:40:45;26.00;41.50
29501;DHT22;16450;50.288;10.966;2023-06-14T07:43:47;26.00;41.40
29501;DHT22;16450;50.288;10.966;2023-06-14T07:46:48;26.10;41.40
29501;DHT22;16450;50.288;10.966;2023-06-14T07:49:51;26.20;41.40
29501;DHT22;16450;50.288;10.966;2023-06-14T07:52:52;26.30;41.00
29501;DHT22;16450;50.288;10.966;2023-06-14T07:55:54;26.50;41.00
29501;DHT22;16450;50.288;10.966;2023-06-14T07:58:57;26.60;40.80
29501;DHT22;16450;50.288;10.966;2023-06-14T08:01:58;26.60;40.60
29501;DHT22;16450;50.288;10.966;2023-06-14T08:05:01;26.70;40.40
29501;DHT22;16450;50.288;10.966;2023-06-14T08:08:03;26.80;40.00
29501;DHT22;16450;50.288;10.966;2023-06-14T08:11:05;26.90;39.70
29501;DHT22;16450;50.288;10.966;2023-06-14T08:14:07;26.90;39.50
29501;DHT22;16450;50.288;10.966;2023-06-14T08:17:09;27.00;39.40
29501;DHT22;16450;50.288;10.966;2023-06-14T08:20:12;27.00;39.30
29501;DHT22;16450;50.288;10.966;2023-06-14T08:23:15;27.10;39.10
29501;DHT22;16450;50.288;10.966;2023-06-14T08:26:21;27.20;38.80
29501;DHT22;16450;50.288;10.966;2023-06-14T08:29:23;27.20;38.60
29501;DHT22;16450;50.288;10.966;2023-06-14T08:32:25;27.20;38.90
29501;DHT22;16450;50.288;10.966;2023-06-14T08:35:27;27.20;38.60
29501;DHT22;16450;50.288;10.966;2023-06-14T08:38:29;27.30;38.10
29501;DHT22;16450;50.288;10.966;2023-06-14T08:41:31;27.30;38.20
29501;DHT22;16450;50.288;10.966;2023-06-14T08:44:33;27.30;38.40
29501;DHT22;16450;50.288;10.966;2023-06-14T08:47:35;27.40;38.70
29501;DHT22;16450;50.288;10.966;2023-06-14T08:50:43;27.50;37.80
29501;DHT22;16450;50.288;10.966;2023-06-14T08:53:52;27.60;37.80
29501;DHT22;16450;50.288;10.966;2023-06-14T08:56:54;27.60;37.50
29501;DHT22;16450;50.288;10.966;2023-06-14T08:59:59;27.80;37.50
29501;DHT22;16450;50.288;10.966;2023-06-14T09:03:03;27.80;37.10
29501;DHT22;16450;50.288;10.966;2023-06-14T09:06:05;27.80;37.30
29501;DHT22;16450;50.288;10.966;2023-06-14T09:09:07;27.80;37.10
29501;DHT22;16450;50.288;10.966;2023-06-14T09:12:10;27.80;37.40
29501;DHT22;16450;50.288;10.966;2023-06-14T09:15:13;27.80;37.40
29501;DHT22;16450;50.288;10.966;2023-06-14T09:18:15;27.70;37.20
29501;DHT22;16450;50.288;10.966;2023-06-14T09:21:18;27.70;36.50
29501;DHT22;16450;50.288;10.966;2023-06-14T09:24:20;27.60;36.20
29501;DHT22;16450;50.288;10.966;2023-06-14T09:27:22;27.50;36.00
29501;DHT22;16450;50.288;10.966;2023-06-14T09:30:23;27.40;36.60
29501;DHT22;16450;50.288;10.966;2023-06-14T09:33:25;27.40;36.60
29501;DHT22;16450;50.288;10.966;2023-06-14T09:36:30;27.40;37.30
29501;DHT22;16450;50.288;10.966;2023-06-14T09:39:33;27.40;37.20
29501;DHT22;16450;50.288;10.966;2023-06-14T09:42:35;27.50;37.60
29501;DHT22;16450;50.288;10.966;2023-06-14T09:45:39;27.50;36.80
29501;DHT22;16450;50.288;10.966;2023-06-14T09:48:43;27.60;36.90
29501;DHT22;16450;50.288;10.966;2023-06-14T09:51:45;27.60;36.50
29501;DHT22;16450;50.288;10.966;2023-06-14T09:54:52;27.60;36.30
29501;DHT22;16450;50.288;10.966;2023-06-14T09:57:56;27.60;36.70
29501;DHT22;16450;50.288;10.966;2023-06-14T10:00:59;27.60;36.20
29501;DHT22;16450;50.288;10.966;2023-06-14T10:04:06;27.60;36.10
29501;DHT22;16450;50.288;10.966;2023-06-14T10:07:15;27.60;36.60
29501;DHT22;16450;50.288;10.966;2023-06-14T10:10:20;27.50;36.80
29501;DHT22;16450;50.288;10.966;2023-06-14T10:13:23;27.50;36.60
29501;DHT22;16450;50.288;10.966;2023-06-14T10:19:50;27.60;36.00
29501;DHT22;16450;50.288;10.966;2023-06-14T10:23:03;27.60;36.30
29501;DHT22;16450;50.288;10.966;2023-06-14T10:26:06;27.60;36.50
29501;DHT22;16450;50.288;10.966;2023-06-14T10:29:09;27.50;36.60
29501;DHT22;16450;50.288;10.966;2023-06-14T10:32:11;27.50;36.00
29501;DHT22;16450;50.288;10.966;2023-06-14T10:35:16;27.50;36.50
29501;DHT22;16450;50.288;10.966;2023-06-14T10:38:30;27.40;36.60
29501;DHT22;16450;50.288;10.966;2023-06-14T10:41:38;27.40;36.10
29501;DHT22;16450;50.288;10.966;2023-06-14T10:44:56;27.40;36.00
29501;DHT22;16450;50.288;10.966;2023-06-14T10:47:59;27.50;35.60
29501;DHT22;16450;50.288;10.966;2023-06-14T10:51:04;27.40;35.60
29501;DHT22;16450;50.288;10.966;2023-06-14T10:54:12;27.30;35.60
29501;DHT22;16450;50.288;10.966;2023-06-14T10:57:15;27.30;34.90
29501;DHT22;16450;50.288;10.966;2023-06-14T11:00:27;27.10;34.90
29501;DHT22;16450;50.288;10.966;2023-06-14T11:04:06;27.00;35.50
29501;DHT22;16450;50.288;10.966;2023-06-14T11:10:40;26.90;35.90
29501;DHT22;16450;50.288;10.966;2023-06-14T11:13:44;26.90;36.00
29501;DHT22;16450;50.288;10.966;2023-06-14T11:16:50;26.90;35.90
29501;DHT22;16450;50.288;10.966;2023-06-14T11:20:11;26.90;36.20
29501;DHT22;16450;50.288;10.966;2023-06-14T11:23:21;26.90;36.90
29501;DHT22;16450;50.288;10.966;2023-06-14T11:26:29;26.90;36.30
29501;DHT22;16450;50.288;10.966;2023-06-14T11:29:31;27.00;36.50
29501;DHT22;16450;50.288;10.966;2023-06-14T11:32:33;27.00;36.00
29501;DHT22;16450;50.288;10.966;2023-06-14T11:35:35;27.00;35.70
29501;DHT22;16450;50.288;10.966;2023-06-14T11:38:37;27.00;35.70
29501;DHT22;16450;50.288;10.966;2023-06-14T11:41:41;27.00;35.30
29501;DHT22;16450;50.288;10.966;2023-06-14T11:44:45;26.90;35.00
29501;DHT22;16450;50.288;10.966;2023-06-14T11:47:48;26.80;35.50
29501;DHT22;16450;50.288;10.966;2023-06-14T11:50:50;26.70;35.60
29501;DHT22;16450;50.288;10.966;2023-06-14T11:53:53;26.70;36.60
29501;DHT22;16450;50.288;10.966;2023-06-14T11:56:55;26.80;36.10
29501;DHT22;16450;50.288;10.966;2023-06-14T11:59:57;26.80;36.40
29501;DHT22;16450;50.288;10.966;2023-06-14T12:02:59;26.90;35.80
29501;DHT22;16450;50.288;10.966;2023-06-14T12:06:08;27.00;35.80
29501;DHT22;16450;50.288;10.966;2023-06-14T12:09:10;27.10;35.70
29501;DHT22;16450;50.288;10.966;2023-06-14T12:12:16;27.10;35.20
29501;DHT22;16450;50.288;10.966;2023-06-14T12:15:18;27.00;34.80
29501;DHT22;16450;50.288;10.966;2023-06-14T12:18:20;26.90;35.10
29501;DHT22;16450;50.288;10.966;2023-06-14T12:21:23;26.80;35.10
29501;DHT22;16450;50.288;10.966;2023-06-14T12:24:28;26.80;35.10
29501;DHT22;16450;50.288;10.966;2023-06-14T12:27:30;26.70;35.80
29501;DHT22;16450;50.288;10.966;2023-06-14T12:30:33;26.70;35.50
29501;DHT22;16450;50.288;10.966;2023-06-14T12:33:36;26.70;35.40
29501;DHT22;16450;50.288;10.966;2023-06-14T12:36:38;26.60;35.10
29501;DHT22;16450;50.288;10.966;2023-06-14T12:39:46;26.50;35.20
29501;DHT22;16450;50.288;10.966;2023-06-14T12:42:48;26.30;35.20
29501;DHT22;16450;50.288;10.966;2023-06-14T12:45:49;26.30;35.40
29501;DHT22;16450;50.288;10.966;2023-06-14T12:48:51;26.20;35.30
29501;DHT22;16450;50.288;10.966;2023-06-14T12:51:53;26.20;35.10
29501;DHT22;16450;50.288;10.966;2023-06-14T12:54:55;26.20;35.40
29501;DHT22;16450;50.288;10.966;2023-06-14T12:57:57;26.30;35.70
29501;DHT22;16450;50.288;10.966;2023-06-14T13:00:59;26.30;36.00
29501;DHT22;16450;50.288;10.966;2023-06-14T13:04:01;26.40;36.00
29501;DHT22;16450;50.288;10.966;2023-06-14T13:07:03;26.50;35.40
29501;DHT22;16450;50.288;10.966;2023-06-14T13:10:06;26.60;35.40
29501;DHT22;16450;50.288;10.966;2023-06-14T13:13:08;26.60;35.10
29501;DHT22;16450;50.288;10.966;2023-06-14T13:16:10;26.70;36.30
29501;DHT22;16450;50.288;10.966;2023-06-14T13:19:12;26.80;34.70
29501;DHT22;16450;50.288;10.966;2023-06-14T13:22:14;26.80;34.70
29501;DHT22;16450;50.288;10.966;2023-06-14T13:25:16;26.80;34.70
29501;DHT22;16450;50.288;10.966;2023-06-14T13:28:18;26.70;34.50
29501;DHT22;16450;50.288;10.966;2023-06-14T13:31:20;26.60;34.60
29501;DHT22;16450;50.288;10.966;2023-06-14T13:34:22;26.50;34.70
29501;DHT22;16450;50.288;10.966;2023-06-14T13:37:24;26.50;35.80
29501;DHT22;16450;50.288;10.966;2023-06-14T13:40:26;26.60;35.90
29501;DHT22;16450;50.288;10.966;2023-06-14T13:43:28;26.70;35.50
29501;DHT22;16450;50.288;10.966;2023-06-14T13:46:30;26.90;34.90
29501;DHT22;16450;50.288;10.966;2023-06-14T13:49:32;27.00;34.70
29501;DHT22;16450;50.288;10.966;2023-06-14T13:52:36;26.90;34.70
29501;DHT22;16450;50.288;10.966;2023-06-14T13:55:38;26.90;34.40
29501;DHT22;16450;50.288;10.966;2023-06-14T13:58:40;26.80;34.20
29501;DHT22;16450;50.288;10.966;2023-06-14T14:01:42;26.80;34.50
29501;DHT22;16450;50.288;10.966;2023-06-14T14:04:44;26.80;35.00
29501;DHT22;16450;50.288;10.966;2023-06-14T14:07:53;26.70;34.30
29501;DHT22;16450;50.288;10.966;2023-06-14T14:10:55;26.60;34.50
29501;DHT22;16450;50.288;10.966;2023-06-14T14:13:57;26.60;34.40
29501;DHT22;16450;50.288;10.966;2023-06-14T14:17:00;26.60;33.90
29501;DHT22;16450;50.288;10.966;2023-06-14T14:20:01;26.60;34.60
29501;DHT22;16450;50.288;10.966;2023-06-14T14:23:04;26.80;34.80
29501;DHT22;16450;50.288;10.966;2023-06-14T14:26:06;26.70;34.50
29501;DHT22;16450;50.288;10.966;2023-06-14T14:29:08;26.90;34.70
29501;DHT22;16450;50.288;10.966;2023-06-14T14:32:12;27.10;34.70
29501;DHT22;16450;50.288;10.966;2023-06-14T14:35:16;27.20;34.40
29501;DHT22;16450;50.288;10.966;2023-06-14T14:38:19;27.10;33.90
29501;DHT22;16450;50.288;10.966;2023-06-14T14:41:21;27.10;33.60
29501;DHT22;16450;50.288;10.966;2023-06-14T14:44:22;26.90;33.50
29501;DHT22;16450;50.288;10.966;2023-06-14T14:47:24;26.80;33.60
29501;DHT22;16450;50.288;10.966;2023-06-14T14:50:27;26.60;34.00
29501;DHT22;16450;50.288;10.966;2023-06-14T14:53:29;26.60;34.20
29501;DHT22;16450;50.288;10.966;2023-06-14T14:56:31;26.60;34.30
29501;DHT22;16450;50.288;10.966;2023-06-14T14:59:33;26.70;33.90
29501;DHT22;16450;50.288;10.966;2023-06-14T15:02:35;26.70;34.00
29501;DHT22;16450;50.288;10.966;2023-06-14T15:05:37;26.70;34.10
29501;DHT22;16450;50.288;10.966;2023-06-14T15:08:39;26.90;34.10
29501;DHT22;16450;50.288;10.966;2023-06-14T15:11:41;27.00;34.20
29501;DHT22;16450;50.288;10.966;2023-06-14T15:14:45;27.00;33.90
29501;DHT22;16450;50.288;10.966;2023-06-14T15:17:46;27.00;33.90
29501;DHT22;16450;50.288;10.966;2023-06-14T15:20:49;27.00;33.80
29501;DHT22;16450;50.288;10.966;2023-06-14T15:23:51;27.00;33.90
29501;DHT22;16450;50.288;10.966;2023-06-14T15:26:55;27.00;34.10
29501;DHT22;16450;50.288;10.966;2023-06-14T15:29:56;27.00;34.00
29501;DHT22;16450;50.288;10.966;2023-06-14T15:32:58;27.00;33.50
29501;DHT22;16450;50.288;10.966;2023-06-14T15:36:00;27.10;33.20
29501;DHT22;16450;50.288;10.966;2023-06-14T15:39:02;27.10;33.30
29501;DHT22;16450;50.288;10.966;2023-06-14T15:42:05;27.20;33.70
29501;DHT22;16450;50.288;10.966;2023-06-14T15:45:09;27.30;34.00
29501;DHT22;16450;50.288;10.966;2023-06-14T15:48:12;27.30;33.70
29501;DHT22;16450;50.288;10.966;2023-06-14T15:51:15;27.40;33.30
29501;DHT22;16450;50.288;10.966;2023-06-14T15:54:17;27.40;34.00
29501;DHT22;16450;50.288;10.966;2023-06-14T15:57:19;27.40;33.20
29501;DHT22;16450;50.288;10.966;2023-06-14T16:00:21;27.40;32.90
29501;DHT22;16450;50.288;10.966;2023-06-14T16:03:23;27.30;33.00
29501;DHT22;16450;50.288;10.966;2023-06-14T16:06:25;27.30;33.00
29501;DHT22;16450;50.288;10.966;2023-06-14T16:09:27;27.10;33.00
29501;DHT22;16450;50.288;10.966;2023-06-14T16:12:30;26.90;32.70
29501;DHT22;16450;50.288;10.966;2023-06-14T16:15:31;26.80;32.90
29501;DHT22;16450;50.288;10.966;2023-06-14T16:18:33;26.50;32.80
29501;DHT22;16450;50.288;10.966;2023-06-14T16:21:35;26.40;33.00
29501;DHT22;16450;50.288;10.966;2023-06-14T16:24:38;26.20;33.10
29501;DHT22;16450;50.288;10.966;2023-06-14T16:27:40;26.00;33.30
29501;DHT22;16450;50.288;10.966;2023-06-14T16:30:42;25.90;33.40
29501;DHT22;16450;50.288;10.966;2023-06-14T16:33:44;25.70;33.30
29501;DHT22;16450;50.288;10.966;2023-06-14T16:36:46;25.60;33.50
29501;DHT22;16450;50.288;10.966;2023-06-14T16:39:48;25.50;33.60
29501;DHT22;16450;50.288;10.966;2023-06-14T16:42:50;25.40;33.80
29501;DHT22;16450;50.288;10.966;2023-06-14T16:45:52;25.30;33.90
29501;DHT22;16450;50.288;10.966;2023-06-14T16:48:54;25.10;34.00
29501;DHT22;16450;50.288;10.966;2023-06-14T16:51:56;25.00;34.00
29501;DHT22;16450;50.288;10.966;2023-06-14T16:54:57;24.90;34.00
29501;DHT22;16450;50.288;10.966;2023-06-14T16:58:00;24.80;34.10
29501;DHT22;16450;50.288;10.966;2023-06-14T17:01:02;24.80;34.30
29501;DHT22;16450;50.288;10.966;2023-06-14T17:04:04;24.70;34.30
29501;DHT22;16450;50.288;10.966;2023-06-14T17:07:06;24.60;34.30
29501;DHT22;16450;50.288;10.966;2023-06-14T17:10:08;24.60;35.00
29501;DHT22;16450;50.288;10.966;2023-06-14T17:13:10;24.50;34.50
29501;DHT22;16450;50.288;10.966;2023-06-14T17:16:12;24.40;34.60
29501;DHT22;16450;50.288;10.966;2023-06-14T17:19:14;24.30;34.50
29501;DHT22;16450;50.288;10.966;2023-06-14T17:22:16;24.30;34.70
29501;DHT22;16450;50.288;10.966;2023-06-14T17:25:18;24.20;34.60
29501;DHT22;16450;50.288;10.966;2023-06-14T17:28:20;24.20;34.60
29501;DHT22;16450;50.288;10.966;2023-06-14T17:31:22;24.10;34.70
29501;DHT22;16450;50.288;10.966;2023-06-14T17:34:24;24.10;35.10
29501;DHT22;16450;50.288;10.966;2023-06-14T17:37:26;24.10;35.20
29501;DHT22;16450;50.288;10.966;2023-06-14T17:40:29;24.10;35.40
29501;DHT22;16450;50.288;10.966;2023-06-14T17:43:49;24.10;35.30
29501;DHT22;16450;50.288;10.966;2023-06-14T17:46:52;24.10;35.20
29501;DHT22;16450;50.288;10.966;2023-06-14T17:49:54;24.00;35.20
29501;DHT22;16450;50.288;10.966;2023-06-14T17:52:56;24.00;35.30
29501;DHT22;16450;50.288;10.966;2023-06-14T17:55:58;24.00;35.40
29501;DHT22;16450;50.288;10.966;2023-06-14T17:59:00;23.90;35.50
29501;DHT22;16450;50.288;10.966;2023-06-14T18:02:02;23.90;35.50
29501;DHT22;16450;50.288;10.966;2023-06-14T18:05:04;23.80;35.60
29501;DHT22;16450;50.288;10.966;2023-06-14T18:08:07;23.80;35.60
29501;DHT22;16450;50.288;10.966;2023-06-14T18:11:09;23.70;36.00
29501;DHT22;16450;50.288;10.966;2023-06-14T18:14:11;23.60;35.90
29501;DHT22;16450;50.288;10.966;2023-06-14T18:17:13;23.60;36.00
29501;DHT22;16450;50.288;10.966;2023-06-14T18:20:15;23.50;36.30
29501;DHT22;16450;50.288;10.966;2023-06-14T18:23:17;23.40;36.20
29501;DHT22;16450;50.288;10.966;2023-06-14T18:26:23;23.30;36.40
29501;DHT22;16450;50.288;10.966;2023-06-14T18:29:27;23.20;36.60
29501;DHT22;16450;50.288;10.966;2023-06-14T18:32:29;23.20;36.70
29501;DHT22;16450;50.288;10.966;2023-06-14T18:35:33;23.10;37.00
29501;DHT22;16450;50.288;10.966;2023-06-14T18:38:35;23.00;37.00
29501;DHT22;16450;50.288;10.966;2023-06-14T18:41:38;22.90;37.20
29501;DHT22;16450;50.288;10.966;2023-06-14T18:44:41;22.80;37.30
29501;DHT22;16450;50.288;10.966;2023-06-14T18:47:42;22.70;37.30
29501;DHT22;16450;50.288;10.966;2023-06-14T18:50:45;22.70;37.60
29501;DHT22;16450;50.288;10.966;2023-06-14T18:53:46;22.50;37.60
29501;DHT22;16450;50.288;10.966;2023-06-14T18:56:49;22.50;37.70
29501;DHT22;16450;50.288;10.966;2023-06-14T18:59:51;22.30;38.00
29501;DHT22;16450;50.288;10.966;2023-06-14T19:02:53;22.20;38.00
29501;DHT22;16450;50.288;10.966;2023-06-14T19:05:55;22.10;38.10